EKAH/AAR METAR and TAF weather

Enter ICAO airport designator
Station Type Date Time Source
EKAH METAR 2019/08/19 07:50 UTC NOAA

EKAH 190750Z AUTO 19007KT 150V240 9999NDV -SHRA FEW009/// BKN077/// 16/15 Q1008


Station Type Date Time Source
EKAH Decoded METAR 2019/08/19 07:50 UTC NOAA

Station name not available
Aug 19, 2019 - 03:50 AM EDT / 2019.08.19 0750 UTC
Wind: from the S (190 degrees) at 8 MPH (7 KT) (direction variable):0
Sky conditions: mostly cloudy
Weather: light rain showers
Temperature: 60 F (16 C)
Dew Point: 59 F (15 C)
Relative Humidity: 93%
Pressure (altimeter): 29.77 in. Hg (1008 hPa)
ob: EKAH 190750Z AUTO 19007KT 150V240 9999NDV -SHRA FEW009/// BKN077/// 16/15 Q1008
cycle: 8

Station Type Date Time Source
EKAH TAF 2019/08/19 06:31 UTC NOAA

TAF EKAH 190503Z 1906/2006 22006KT 9999 BKN020
TEMPO 1906/1911 SHRA BKN020CB PROB40
TEMPO 1911/1918 4000 TSRA
TEMPO 1918/1924 SHRA SCT020CB

Example: see airport list